Time;durP1;ratioP1;P1;durP2;ratioP2;P2;SDS_P1;SDS_P2;PMS_P1;PMS_P2;Temp;Humidity;BMP_temperature;BMP_pressure;BME280_temperature;BME280_humidity;BME280_pressure;Samples;Min_cycle;Max_cycle;Signal;HPM_P1;HPM_P2
2022/06/01 00:01:36;;;;;;;1999.90;999.90;;;9.60;99.90;;;;;;5056289;28;20463;-78
2022/06/01 00:04:02;;;;;;;1999.90;999.90;;;9.60;99.90;;;;;;5047132;28;20521;-78
2022/06/01 00:06:28;;;;;;;1999.90;999.90;;;9.70;99.90;;;;;;5067126;28;20048;-77
2022/06/01 00:08:53;;;;;;;1999.90;999.90;;;9.70;99.90;;;;;;5069123;28;20036;-78
2022/06/01 00:11:19;;;;;;;1999.90;999.90;;;9.70;99.90;;;;;;5066027;28;20048;-79
2022/06/01 00:13:45;;;;;;;1999.90;999.90;;;9.70;99.90;;;;;;5042488;28;20083;-78
2022/06/01 00:16:10;;;;;;;1999.90;999.90;;;9.70;99.90;;;;;;5049318;28;20056;-78
2022/06/01 00:18:37;;;;;;;1999.90;999.90;;;9.70;99.90;;;;;;5066750;28;20043;-78
2022/06/01 00:21:04;;;;;;;1999.90;999.90;;;9.80;99.90;;;;;;5051867;28;20059;-78
2022/06/01 00:23:30;;;;;;;1999.90;999.90;;;9.70;99.90;;;;;;5066734;28;20052;-77
2022/06/01 00:25:56;;;;;;;1999.90;999.90;;;9.80;99.90;;;;;;5042697;28;20156;-77
2022/06/01 00:28:22;;;;;;;1999.90;999.90;;;9.80;99.90;;;;;;5035076;28;20773;-78
2022/06/01 00:30:48;;;;;;;1999.90;999.90;;;9.80;99.90;;;;;;5065173;28;20035;-79
2022/06/01 00:33:13;;;;;;;1999.90;999.90;;;9.80;99.90;;;;;;5067427;28;20043;-78
2022/06/01 00:35:39;;;;;;;1999.90;999.90;;;9.80;99.90;;;;;;5065584;28;20035;-80
2022/06/01 00:38:05;;;;;;;1999.90;999.90;;;9.80;99.90;;;;;;5067207;28;20080;-78
2022/06/01 00:40:31;;;;;;;1999.90;999.90;;;9.80;99.90;;;;;;5035189;28;20041;-79
2022/06/01 00:42:59;;;;;;;1999.90;999.90;;;9.80;99.90;;;;;;5059471;28;20117;-78
2022/06/01 00:45:28;;;;;;;1999.90;999.90;;;9.80;99.90;;;;;;5051067;28;20050;-79
2022/06/01 00:47:54;;;;;;;1999.90;999.90;;;9.80;99.90;;;;;;5046264;28;20042;-79
2022/06/01 00:50:36;;;;;;;1999.90;999.90;;;9.80;99.90;;;;;;5034554;28;20151;-78
2022/06/01 00:53:05;;;;;;;1999.90;999.90;;;9.80;99.90;;;;;;5065957;28;20036;-78
2022/06/01 00:55:35;;;;;;;1999.90;999.90;;;9.80;99.90;;;;;;5065036;28;20047;-78
2022/06/01 00:58:24;;;;;;;1999.90;999.90;;;9.80;99.90;;;;;;5065764;28;20160;-78
2022/06/01 01:00:52;;;;;;;1999.90;999.90;;;9.80;99.90;;;;;;5043097;28;20044;-78
2022/06/01 01:03:21;;;;;;;1999.90;999.90;;;9.80;99.90;;;;;;5067742;28;20083;-78
2022/06/01 01:06:05;;;;;;;1999.90;999.90;;;9.80;99.90;;;;;;5051352;28;20134;-78
2022/06/01 01:08:31;;;;;;;1999.90;999.90;;;9.80;99.90;;;;;;5064456;28;20048;-78
2022/06/01 01:10:57;;;;;;;1999.90;999.90;;;9.80;99.90;;;;;;5053831;28;20489;-78
2022/06/01 01:13:23;;;;;;;1999.90;999.90;;;9.80;99.90;;;;;;5043107;28;20045;-78
2022/06/01 01:15:52;;;;;;;1999.90;999.90;;;9.80;99.90;;;;;;5057324;28;20045;-78
2022/06/01 01:18:22;;;;;;;1999.90;999.90;;;9.80;99.90;;;;;;5066781;28;20043;-78
2022/06/01 01:21:01;;;;;;;1999.90;999.90;;;9.80;99.90;;;;;;5064205;28;20054;-77
2022/06/01 01:23:47;;;;;;;1999.90;999.90;;;9.80;99.90;;;;;;5057463;28;20061;-77
2022/06/01 01:26:14;;;;;;;1999.90;999.90;;;9.80;99.90;;;;;;5068416;28;20089;-77
2022/06/01 01:28:41;;;;;;;1999.90;999.90;;;9.80;99.90;;;;;;5046181;28;20436;-78
2022/06/01 01:31:19;;;;;;;1999.90;999.90;;;9.70;99.90;;;;;;5059942;28;20031;-78
2022/06/01 01:33:47;;;;;;;1999.90;999.90;;;9.80;99.90;;;;;;5069634;28;20504;-77
2022/06/01 01:36:15;;;;;;;1999.90;999.90;;;9.80;99.90;;;;;;5066853;28;20065;-77
2022/06/01 01:39:09;;;;;;;1999.90;999.90;;;9.80;99.90;;;;;;5047555;28;20050;-78
2022/06/01 01:41:40;;;;;;;1999.90;999.90;;;9.80;99.90;;;;;;5052297;28;20040;-77
2022/06/01 01:44:19;;;;;;;1999.90;999.90;;;9.80;99.90;;;;;;5070144;28;20561;-77
2022/06/01 01:46:50;;;;;;;1999.90;999.90;;;9.80;99.90;;;;;;5062985;28;20463;-78
2022/06/01 01:49:24;;;;;;;1999.90;999.90;;;9.80;99.90;;;;;;5072358;28;20564;-77
2022/06/01 01:51:53;;;;;;;1999.90;999.90;;;9.80;99.90;;;;;;5059200;28;20036;-77
2022/06/01 01:54:56;;;;;;;1999.90;999.90;;;9.80;99.90;;;;;;5066555;28;20055;-78
2022/06/01 01:57:33;;;;;;;1999.90;999.90;;;9.80;99.90;;;;;;5051745;28;20079;-77
2022/06/01 02:00:07;;;;;;;1999.90;999.90;;;9.80;99.90;;;;;;5040494;28;20468;-77
2022/06/01 02:02:44;;;;;;;1999.90;999.90;;;9.80;99.90;;;;;;5066870;28;20094;-77
2022/06/01 02:08:27;;;;;;;1999.90;999.90;;;9.80;99.90;;;;;;5073422;28;20051;-77
2022/06/01 02:13:46;;;;;;;1999.90;999.90;;;9.80;99.90;;;;;;5066578;28;20433;-78
2022/06/01 02:16:12;;;;;;;1999.90;999.90;;;9.80;99.90;;;;;;5066365;28;20079;-77
2022/06/01 02:18:43;;;;;;;1999.90;999.90;;;9.70;99.90;;;;;;5053362;28;20044;-77
2022/06/01 02:21:21;;;;;;;1999.90;999.90;;;9.70;99.90;;;;;;5060195;28;20051;-77
2022/06/01 02:23:49;;;;;;;1999.90;999.90;;;9.70;99.90;;;;;;5065921;28;20049;-77
2022/06/01 02:26:15;;;;;;;1999.90;999.90;;;9.70;99.90;;;;;;5061153;28;20048;-77
2022/06/01 02:28:46;;;;;;;1999.90;999.90;;;9.80;99.90;;;;;;5043547;28;20075;-77
2022/06/01 02:31:13;;;;;;;1999.90;999.90;;;9.70;99.90;;;;;;5065702;28;20141;-77
2022/06/01 02:33:41;;;;;;;1999.90;999.90;;;9.70;99.90;;;;;;5056478;28;20045;-77
2022/06/01 02:36:08;;;;;;;1999.90;999.90;;;9.70;99.90;;;;;;5063981;28;20083;-77
2022/06/01 02:38:40;;;;;;;1999.90;999.90;;;9.70;99.90;;;;;;5050925;28;20056;-77
2022/06/01 02:41:07;;;;;;;1999.90;999.90;;;9.60;99.90;;;;;;5057070;28;20036;-77
2022/06/01 02:43:48;;;;;;;1999.90;999.90;;;9.60;99.90;;;;;;5046185;28;20131;-77
2022/06/01 02:46:13;;;;;;;1999.90;999.90;;;9.60;99.90;;;;;;5059780;28;20064;-77
2022/06/01 02:48:43;;;;;;;1999.90;999.90;;;9.60;99.90;;;;;;5047927;28;20036;-78
2022/06/01 02:51:08;;;;;;;1999.90;999.90;;;9.60;99.90;;;;;;5041001;28;20037;-77
2022/06/01 02:53:37;;;;;;;1999.90;999.90;;;9.60;99.90;;;;;;5063623;28;20040;-77
2022/06/01 02:56:03;;;;;;;1999.90;999.90;;;9.70;99.90;;;;;;5043184;28;20040;-77
2022/06/01 02:58:29;;;;;;;1999.90;999.90;;;9.60;99.90;;;;;;5048399;28;20071;-78
2022/06/01 03:00:58;;;;;;;1999.90;999.90;;;9.60;99.90;;;;;;5057915;28;20188;-77
2022/06/01 03:03:24;;;;;;;1999.90;999.90;;;9.70;99.90;;;;;;5048299;28;20040;-78
2022/06/01 03:05:50;;;;;;;1999.90;999.90;;;9.70;99.90;;;;;;5062868;28;20840;-77
2022/06/01 03:08:16;;;;;;;1999.90;999.90;;;9.70;99.90;;;;;;5046255;28;20040;-77
2022/06/01 03:10:41;;;;;;;1999.90;999.90;;;9.70;99.90;;;;;;5061563;28;20048;-77
2022/06/01 03:13:07;;;;;;;1999.90;999.90;;;9.60;99.90;;;;;;5068412;28;20115;-77
2022/06/01 03:15:33;;;;;;;1999.90;999.90;;;9.70;99.90;;;;;;5062080;28;20041;-77
2022/06/01 03:17:59;;;;;;;1999.90;999.90;;;9.60;99.90;;;;;;5062576;28;20045;-77
2022/06/01 03:20:27;;;;;;;1999.90;999.90;;;9.70;99.90;;;;;;5059941;28;20089;-77
2022/06/01 03:22:53;;;;;;;1999.90;999.90;;;9.70;99.90;;;;;;5066686;28;20052;-77
2022/06/01 03:25:22;;;;;;;1999.90;999.90;;;9.70;99.90;;;;;;5040734;28;20068;-77
2022/06/01 03:27:49;;;;;;;1999.90;999.90;;;9.70;99.90;;;;;;5067999;28;20036;-77
2022/06/01 03:30:17;;;;;;;1999.90;999.90;;;9.70;99.90;;;;;;5067278;28;20051;-77
2022/06/01 03:32:46;;;;;;;1999.90;999.90;;;9.70;99.90;;;;;;5053279;28;20053;-77
2022/06/01 03:35:14;;;;;;;1999.90;999.90;;;9.70;99.90;;;;;;5046477;28;20048;-77
2022/06/01 03:37:40;;;;;;;1999.90;999.90;;;9.70;99.90;;;;;;5063262;28;20045;-77
2022/06/01 03:40:06;;;;;;;1999.90;999.90;;;9.70;99.90;;;;;;5059817;28;20509;-77
2022/06/01 03:42:33;;;;;;;1999.90;999.90;;;9.70;99.90;;;;;;5057217;28;20086;-77
2022/06/01 03:47:44;;;;;;;1999.90;999.90;;;9.80;99.90;;;;;;5061956;28;20044;-78
2022/06/01 03:50:11;;;;;;;1999.90;999.90;;;9.80;99.90;;;;;;5045982;28;20064;-77
2022/06/01 03:52:37;;;;;;;1999.90;999.90;;;9.80;99.90;;;;;;5043289;28;20432;-77
2022/06/01 03:55:03;;;;;;;1999.90;999.90;;;9.90;99.90;;;;;;5065468;28;20047;-77
2022/06/01 03:57:29;;;;;;;1999.90;999.90;;;9.90;99.90;;;;;;5047768;28;20472;-77
2022/06/01 03:59:55;;;;;;;1999.90;999.90;;;9.90;99.90;;;;;;5062310;28;20044;-77
2022/06/01 04:02:20;;;;;;;1999.90;999.90;;;9.90;99.90;;;;;;5048895;28;20041;-77
2022/06/01 04:04:46;;;;;;;1999.90;999.90;;;10.00;99.90;;;;;;5061637;28;20479;-77
2022/06/01 04:07:11;;;;;;;1999.90;999.90;;;10.00;99.90;;;;;;5060782;28;20036;-77
2022/06/01 04:09:37;;;;;;;1999.90;999.90;;;10.00;99.90;;;;;;5040685;28;20075;-77
2022/06/01 04:12:02;;;;;;;1999.90;999.90;;;10.00;99.90;;;;;;5071452;28;20048;-77
2022/06/01 04:14:28;;;;;;;1999.90;999.90;;;10.00;99.90;;;;;;5057279;28;20072;-77
2022/06/01 04:16:54;;;;;;;1999.90;999.90;;;10.10;99.90;;;;;;5058084;28;20036;-77
2022/06/01 04:19:19;;;;;;;1999.90;999.90;;;10.10;99.90;;;;;;5065930;28;20037;-78
2022/06/01 04:21:50;;;;;;;1999.90;999.90;;;10.10;99.90;;;;;;5057948;28;20466;-77
2022/06/01 04:24:19;;;;;;;1999.90;999.90;;;10.10;99.90;;;;;;5060812;28;20060;-77
2022/06/01 04:26:45;;;;;;;1999.90;999.90;;;10.10;99.90;;;;;;5060379;28;20079;-78
2022/06/01 04:29:11;;;;;;;1999.90;999.90;;;10.20;99.90;;;;;;5057940;28;20128;-77
2022/06/01 04:31:37;;;;;;;1999.90;999.90;;;10.20;99.90;;;;;;5039395;28;20121;-77
2022/06/01 04:34:04;;;;;;;1999.90;999.90;;;10.20;99.90;;;;;;5042369;28;20033;-77
2022/06/01 04:36:30;;;;;;;1999.90;999.90;;;10.30;99.90;;;;;;5056386;28;20052;-78
2022/06/01 04:38:56;;;;;;;1999.90;999.90;;;10.30;99.90;;;;;;5069045;28;20861;-78
2022/06/01 04:41:21;;;;;;;1999.90;999.90;;;10.30;99.90;;;;;;5062938;28;20040;-78
2022/06/01 04:43:47;;;;;;;1999.90;999.90;;;10.30;99.90;;;;;;5051306;28;20049;-77
2022/06/01 04:46:12;;;;;;;1999.90;999.90;;;10.40;99.90;;;;;;5060670;28;20044;-78
2022/06/01 04:48:38;;;;;;;1999.90;999.90;;;10.40;99.90;;;;;;5060444;28;20128;-78
2022/06/01 04:51:04;;;;;;;1999.90;999.90;;;10.50;99.90;;;;;;5055237;28;20032;-78
2022/06/01 04:53:29;;;;;;;1999.90;999.90;;;10.50;99.90;;;;;;5047357;28;20044;-77
2022/06/01 04:55:55;;;;;;;1999.90;999.90;;;10.60;99.90;;;;;;5059081;28;20482;-77
2022/06/01 04:58:22;;;;;;;1999.90;999.90;;;10.60;99.90;;;;;;5050765;28;20185;-78
2022/06/01 05:00:47;;;;;;;1999.90;999.90;;;10.60;99.90;;;;;;5050670;28;20032;-77
2022/06/01 05:03:13;;;;;;;1999.90;999.90;;;10.60;99.90;;;;;;5064926;28;20743;-77
2022/06/01 05:05:39;;;;;;;1999.90;999.90;;;10.60;99.90;;;;;;5062116;28;20094;-77
2022/06/01 05:08:06;;;;;;;1999.90;999.90;;;10.60;99.90;;;;;;5047775;28;20446;-77
2022/06/01 05:10:33;;;;;;;1999.90;999.90;;;10.60;99.90;;;;;;5069452;28;20037;-77
2022/06/01 05:12:59;;;;;;;1999.90;999.90;;;10.60;99.90;;;;;;5060299;28;20051;-77
2022/06/01 05:15:24;;;;;;;1999.90;999.90;;;10.80;99.90;;;;;;5046464;28;20040;-77
2022/06/01 05:17:50;;;;;;;1999.90;999.90;;;11.50;99.90;;;;;;5068447;28;20059;-77
2022/06/01 05:20:16;;;;;;;1999.90;999.90;;;12.30;99.90;;;;;;5051074;28;20041;-77
2022/06/01 05:22:41;;;;;;;1999.90;999.90;;;12.70;99.90;;;;;;5058276;28;20044;-77
2022/06/01 05:25:08;;;;;;;1999.90;999.90;;;12.70;99.90;;;;;;5055704;28;20056;-77
2022/06/01 05:27:35;;;;;;;1999.90;999.90;;;12.70;99.90;;;;;;5069143;28;20139;-77
2022/06/01 05:30:00;;;;;;;1999.90;999.90;;;12.60;99.90;;;;;;5064757;28;20089;-77
2022/06/01 05:32:26;;;;;;;1999.90;999.90;;;12.70;99.90;;;;;;5049514;28;20044;-77
2022/06/01 05:34:52;;;;;;;1999.90;999.90;;;12.70;99.90;;;;;;5063898;28;20040;-77
2022/06/01 05:37:18;;;;;;;1999.90;999.90;;;12.70;99.90;;;;;;5071795;28;20050;-77
2022/06/01 05:39:43;;;;;;;1999.90;999.90;;;12.80;99.90;;;;;;5064284;28;20049;-77
2022/06/01 05:42:10;;;;;;;1999.90;999.90;;;13.00;99.90;;;;;;5051685;28;20051;-78
2022/06/01 05:44:36;;;;;;;1999.90;999.90;;;13.20;99.90;;;;;;5055341;28;20056;-77
2022/06/01 05:47:03;;;;;;;1999.90;999.90;;;13.20;99.90;;;;;;5070526;28;20043;-76
2022/06/01 05:49:29;;;;;;;1999.90;999.90;;;13.10;99.90;;;;;;5066126;28;20044;-77
2022/06/01 05:51:55;;;;;;;1999.90;999.90;;;13.10;99.90;;;;;;5071177;28;20538;-77
2022/06/01 05:54:22;;;;;;;1999.90;999.90;;;13.20;99.90;;;;;;5055197;28;20035;-77
2022/06/01 05:56:47;;;;;;;1999.90;999.90;;;13.40;99.90;;;;;;5063517;28;20032;-78
2022/06/01 05:59:14;;;;;;;1999.90;999.90;;;13.60;99.90;;;;;;5055164;28;20093;-78
2022/06/01 06:01:40;;;;;;;1999.90;999.90;;;13.70;99.90;;;;;;5041614;28;20493;-78
2022/06/01 06:04:06;;;;;;;1999.90;999.90;;;13.60;99.90;;;;;;5054697;28;20039;-78
2022/06/01 06:06:32;;;;;;;1999.90;999.90;;;13.40;99.90;;;;;;5050288;28;20165;-78
2022/06/01 06:09:02;;;;;;;1999.90;999.90;;;13.30;99.90;;;;;;5076099;28;20031;-78
2022/06/01 06:11:31;;;;;;;1999.90;999.90;;;13.10;99.90;;;;;;5067834;28;20404;-78
2022/06/01 06:13:58;;;;;;;1999.90;999.90;;;12.80;99.90;;;;;;5045861;28;20047;-79
2022/06/01 06:16:25;;;;;;;1999.90;999.90;;;12.70;99.90;;;;;;5069810;28;20098;-78
2022/06/01 06:18:55;;;;;;;1999.90;999.90;;;12.50;99.90;;;;;;5055150;28;20521;-78
2022/06/01 06:21:22;;;;;;;1999.90;999.90;;;12.40;99.90;;;;;;5054309;28;20047;-78
2022/06/01 06:23:48;;;;;;;1999.90;999.90;;;12.30;99.90;;;;;;5047235;28;20067;-77
2022/06/01 06:26:14;;;;;;;1999.90;999.90;;;12.10;99.90;;;;;;5049748;28;20400;-79
2022/06/01 06:28:39;;;;;;;1999.90;999.90;;;11.90;99.90;;;;;;5061866;28;20694;-78
2022/06/01 06:31:06;;;;;;;1999.90;999.90;;;11.80;99.90;;;;;;5064517;28;20451;-79
2022/06/01 06:33:32;;;;;;;1999.90;999.90;;;11.70;99.90;;;;;;5065225;28;20144;-77
2022/06/01 06:36:03;;;;;;;1999.90;999.90;;;11.60;99.90;;;;;;5048470;28;20063;-78
2022/06/01 06:38:31;;;;;;;1999.90;999.90;;;11.50;99.90;;;;;;5067955;28;20464;-78
2022/06/01 06:40:58;;;;;;;1999.90;999.90;;;11.50;99.90;;;;;;5072489;28;20076;-78
2022/06/01 06:43:25;;;;;;;1999.90;999.90;;;11.40;99.90;;;;;;5053211;28;20079;-78
2022/06/01 06:45:56;;;;;;;1999.90;999.90;;;11.40;99.90;;;;;;5066892;28;20040;-78
2022/06/01 06:48:22;;;;;;;1999.90;999.90;;;11.40;99.90;;;;;;5068436;28;20068;-78
2022/06/01 06:50:47;;;;;;;1999.90;999.90;;;11.40;99.90;;;;;;5049112;28;20036;-78
2022/06/01 06:53:13;;;;;;;1999.90;999.90;;;11.40;99.90;;;;;;5052092;28;20055;-78
2022/06/01 06:55:39;;;;;;;1999.90;999.90;;;11.50;99.90;;;;;;5064212;28;20039;-78
2022/06/01 06:58:08;;;;;;;1999.90;999.90;;;11.50;99.90;;;;;;5052611;28;20386;-79
2022/06/01 07:00:34;;;;;;;1999.90;999.90;;;11.60;99.90;;;;;;5066196;28;20076;-78
2022/06/01 07:03:00;;;;;;;1999.90;999.90;;;11.70;99.90;;;;;;5061096;28;20083;-78
2022/06/01 07:08:09;;;;;;;1999.90;999.90;;;11.90;99.90;;;;;;5067854;28;21416;-78
2022/06/01 07:10:35;;;;;;;1999.90;999.90;;;11.90;99.90;;;;;;5062854;28;20120;-78
2022/06/01 07:13:00;;;;;;;1999.90;999.90;;;12.10;99.90;;;;;;5059803;28;20093;-78
2022/06/01 07:15:26;;;;;;;1999.90;999.90;;;12.20;99.90;;;;;;5067271;28;20470;-78
2022/06/01 07:17:52;;;;;;;1999.90;999.90;;;12.60;99.90;;;;;;5051228;28;20041;-78
2022/06/01 07:20:18;;;;;;;1999.90;999.90;;;13.80;99.90;;;;;;5065561;28;20297;-79
2022/06/01 07:22:44;;;;;;;1999.90;999.90;;;15.00;99.90;;;;;;5069628;28;20040;-79
2022/06/01 07:25:10;;;;;;;1999.90;999.90;;;16.30;99.90;;;;;;5053449;28;20592;-79
2022/06/01 07:27:36;;;;;;;1999.90;999.90;;;17.10;99.90;;;;;;5050960;28;20094;-79
2022/06/01 07:30:04;;;;;;;1999.90;999.90;;;17.70;99.90;;;;;;5071276;28;20124;-79
2022/06/01 07:32:29;;;;;;;1999.90;999.90;;;18.00;99.90;;;;;;5041839;28;20040;-80
2022/06/01 07:34:55;;;;;;;1999.90;999.90;;;18.20;99.90;;;;;;5049201;28;20052;-79
2022/06/01 07:43:07;;;;;;;1999.90;999.90;;;17.10;99.90;;;;;;5066640;28;20391;-80
2022/06/01 07:45:39;;;;;;;1999.90;999.90;;;16.90;99.90;;;;;;5060304;28;20053;-79
2022/06/01 07:48:06;;;;;;;1999.90;999.90;;;16.60;99.90;;;;;;5038257;28;20816;-80
2022/06/01 07:50:34;;;;;;;1999.90;999.90;;;16.30;99.90;;;;;;5048596;28;20036;-79
2022/06/01 07:53:02;;;;;;;1999.90;999.90;;;15.90;99.90;;;;;;5045526;28;20037;-80
2022/06/01 07:55:28;;;;;;;1999.90;999.90;;;15.70;99.90;;;;;;5061774;28;20124;-79
2022/06/01 07:57:53;;;;;;;1999.90;999.90;;;15.50;99.90;;;;;;5051715;28;20116;-79
2022/06/01 08:00:20;;;;;;;1999.90;999.90;;;15.30;99.90;;;;;;5054257;28;20051;-80
2022/06/01 08:02:46;;;;;;;1999.90;999.90;;;15.50;99.90;;;;;;5044287;28;20052;-79
2022/06/01 08:05:14;;;;;;;1999.90;999.90;;;16.00;99.90;;;;;;5065803;28;20417;-80
2022/06/01 08:07:40;;;;;;;1999.90;999.90;;;16.30;99.90;;;;;;5059557;28;20075;-80
2022/06/01 08:10:07;;;;;;;1999.90;999.90;;;16.50;99.90;;;;;;5045081;28;20132;-80
2022/06/01 08:15:17;;;;;;;1999.90;999.90;;;16.60;99.90;;;;;;5058036;28;20502;-80
2022/06/01 08:17:44;;;;;;;1999.90;999.90;;;16.70;99.90;;;;;;5067165;28;20481;-79
2022/06/01 08:20:12;;;;;;;1999.90;999.90;;;16.80;99.90;;;;;;5040671;28;20059;-80
2022/06/01 08:22:39;;;;;;;1999.90;999.90;;;16.90;99.90;;;;;;5076987;28;20055;-80
2022/06/01 08:25:06;;;;;;;1999.90;999.90;;;16.90;99.90;;;;;;5039449;28;20059;-79
2022/06/01 08:27:32;;;;;;;1999.90;999.90;;;16.80;99.90;;;;;;5080758;28;20045;-79
2022/06/01 08:29:57;;;;;;;1999.90;999.90;;;16.70;99.90;;;;;;5065011;28;20043;-80
2022/06/01 08:32:24;;;;;;;1999.90;999.90;;;16.50;99.90;;;;;;5064012;28;20036;-79
2022/06/01 08:34:49;;;;;;;1999.90;999.90;;;16.50;99.90;;;;;;5060656;28;20485;-79
2022/06/01 08:37:15;;;;;;;1999.90;999.90;;;16.80;99.90;;;;;;5047716;28;20124;-79
2022/06/01 08:39:41;;;;;;;1999.90;999.90;;;17.40;99.90;;;;;;5046242;28;20063;-80
2022/06/01 08:42:12;;;;;;;1999.90;999.90;;;18.00;99.90;;;;;;5066641;28;20304;-80
2022/06/01 08:44:40;;;;;;;1999.90;999.90;;;18.80;99.90;;;;;;5035101;28;20490;-80
2022/06/01 08:47:09;;;;;;;1999.90;999.90;;;19.50;99.90;;;;;;5067450;28;20036;-80
2022/06/01 08:49:37;;;;;;;1999.90;999.90;;;19.90;99.90;;;;;;5050592;28;20083;-80
2022/06/01 08:52:04;;;;;;;1999.90;999.90;;;19.20;99.90;;;;;;5045544;28;20032;-80
2022/06/01 08:54:29;;;;;;;1999.90;999.90;;;18.60;99.90;;;;;;5046053;28;20036;-79
2022/06/01 08:57:01;;;;;;;1999.90;999.90;;;18.00;99.90;;;;;;5066032;28;20044;-80
2022/06/01 08:59:49;;;;;;;1999.90;999.90;;;17.40;99.90;;;;;;5068779;28;20052;-80
2022/06/01 09:02:44;;;;;;;1999.90;999.90;;;16.90;99.90;;;;;;5062641;28;20056;-79
2022/06/01 09:05:15;;;;;;;1999.90;999.90;;;16.50;99.90;;;;;;5056915;28;20037;-79
2022/06/01 09:08:01;;;;;;;1999.90;999.90;;;16.10;99.90;;;;;;5046639;28;20071;-80
2022/06/01 09:10:39;;;;;;;1999.90;999.90;;;16.00;99.90;;;;;;5054484;28;20037;-80
2022/06/01 09:13:23;;;;;;;1999.90;999.90;;;15.90;99.90;;;;;;5041304;28;20090;-80
2022/06/01 09:16:02;;;;;;;1999.90;999.90;;;15.80;99.90;;;;;;5058810;28;20052;-79
2022/06/01 09:18:35;;;;;;;1999.90;999.90;;;15.80;99.90;;;;;;5061704;28;20308;-80
2022/06/01 09:23:46;;;;;;;1999.90;999.90;;;15.90;99.90;;;;;;5052571;28;20053;-80
2022/06/01 09:26:28;;;;;;;1999.90;999.90;;;16.10;99.90;;;;;;5043617;28;20490;-80
2022/06/01 09:28:58;;;;;;;1999.90;999.90;;;16.10;99.90;;;;;;5048812;28;20391;-79
2022/06/01 09:31:37;;;;;;;1999.90;999.90;;;16.60;99.90;;;;;;5040805;28;20512;-79
2022/06/01 09:34:32;;;;;;;1999.90;999.90;;;17.30;99.90;;;;;;5047460;28;20170;-80
2022/06/01 09:37:21;;;;;;;1999.90;999.90;;;18.10;99.90;;;;;;5054879;28;20173;-80
2022/06/01 09:39:57;;;;;;;1999.90;999.90;;;18.60;99.90;;;;;;5047568;28;20045;-79
2022/06/01 09:42:25;;;;;;;1999.90;999.90;;;18.60;99.90;;;;;;5058981;28;20478;-80
2022/06/01 09:44:54;;;;;;;1999.90;999.90;;;18.30;99.90;;;;;;5067653;28;20440;-80
2022/06/01 09:47:33;;;;;;;1999.90;999.90;;;17.90;99.90;;;;;;5061456;28;20049;-79
2022/06/01 09:49:59;;;;;;;1999.90;999.90;;;17.60;99.90;;;;;;5062084;28;20032;-80
2022/06/01 09:52:39;;;;;;;1999.90;999.90;;;17.30;99.90;;;;;;5062030;28;20147;-79
2022/06/01 09:55:19;;;;;;;1999.90;999.90;;;17.20;99.90;;;;;;5065168;28;20040;-80
2022/06/01 09:58:00;;;;;;;1999.90;999.90;;;17.10;99.90;;;;;;5061215;28;20059;-80
2022/06/01 10:06:22;;;;;;;1999.90;999.90;;;16.70;99.90;;;;;;5046107;28;20063;-80
2022/06/01 10:09:10;;;;;;;1999.90;999.90;;;16.50;99.90;;;;;;5058802;28;20090;-79
2022/06/01 10:11:40;;;;;;;1999.90;999.90;;;16.20;99.90;;;;;;5061674;28;20044;-80
2022/06/01 10:14:30;;;;;;;1999.90;999.90;;;16.10;99.90;;;;;;5061649;28;20570;-79
2022/06/01 10:17:00;;;;;;;1999.90;999.90;;;16.00;99.90;;;;;;5061201;28;20039;-80
2022/06/01 10:19:53;;;;;;;1999.90;999.90;;;15.90;99.90;;;;;;5046859;28;20360;-79
2022/06/01 10:22:42;;;;;;;1999.90;999.90;;;15.90;99.90;;;;;;5042453;28;20048;-79
2022/06/01 10:25:18;;;;;;;1999.90;999.90;;;16.00;99.90;;;;;;5052375;28;20064;-80
2022/06/01 10:28:06;;;;;;;1999.90;999.90;;;16.00;99.90;;;;;;5052066;28;20127;-79
2022/06/01 10:30:43;;;;;;;1999.90;999.90;;;16.00;99.90;;;;;;5062071;28;20036;-80
2022/06/01 10:33:23;;;;;;;1999.90;999.90;;;16.00;99.90;;;;;;5076181;28;20385;-79
2022/06/01 10:35:55;;;;;;;1999.90;999.90;;;15.90;99.90;;;;;;5059785;28;20062;-79
2022/06/01 10:38:30;;;;;;;1999.90;999.90;;;15.80;99.90;;;;;;5065556;28;20028;-79
2022/06/01 10:41:03;;;;;;;1999.90;999.90;;;15.60;99.90;;;;;;5087279;28;20526;-80
2022/06/01 10:43:32;;;;;;;1999.90;999.90;;;15.40;99.90;;;;;;5050950;28;20040;-80
2022/06/01 10:46:20;;;;;;;1999.90;999.90;;;15.20;99.90;;;;;;5067848;28;20040;-79
2022/06/01 10:48:55;;;;;;;1999.90;999.90;;;15.10;99.90;;;;;;5012266;28;20057;-80
2022/06/01 10:51:27;;;;;;;1999.90;999.90;;;15.00;99.90;;;;;;5043605;28;20051;-78
2022/06/01 10:54:17;;;;;;;1999.90;999.90;;;14.90;99.90;;;;;;5054864;28;20053;-79
2022/06/01 10:56:43;;;;;;;1999.90;999.90;;;14.80;99.90;;;;;;5041291;28;20029;-80
2022/06/01 10:59:13;;;;;;;1999.90;999.90;;;14.80;99.90;;;;;;5044403;28;20106;-80
2022/06/01 11:02:05;;;;;;;1999.90;999.90;;;14.70;99.90;;;;;;5046873;28;20402;-79
2022/06/01 11:04:32;;;;;;;1999.90;999.90;;;14.50;99.90;;;;;;5047522;28;20048;-79
2022/06/01 11:07:16;;;;;;;1999.90;999.90;;;14.40;99.90;;;;;;5049021;28;20449;-79
2022/06/01 11:09:56;;;;;;;1999.90;999.90;;;14.30;99.90;;;;;;5066684;28;20182;-79
2022/06/01 11:12:33;;;;;;;1999.90;999.90;;;14.30;99.90;;;;;;5055430;28;20493;-80
2022/06/01 11:15:20;;;;;;;1999.90;999.90;;;14.30;99.90;;;;;;5050277;28;20037;-79
2022/06/01 11:17:53;;;;;;;1999.90;999.90;;;14.30;99.90;;;;;;5058776;28;20392;-80
2022/06/01 11:20:37;;;;;;;1999.90;999.90;;;14.30;99.90;;;;;;5049504;28;20050;-79
2022/06/01 11:23:09;;;;;;;1999.90;999.90;;;14.30;99.90;;;;;;5049188;28;20426;-78
2022/06/01 11:25:49;;;;;;;1999.90;999.90;;;14.50;99.90;;;;;;5063818;28;20071;-79
2022/06/01 11:28:43;;;;;;;1999.90;999.90;;;14.90;99.90;;;;;;5047293;28;20051;-79
2022/06/01 11:31:19;;;;;;;1999.90;999.90;;;15.60;99.90;;;;;;5070442;28;20041;-79
2022/06/01 11:33:52;;;;;;;1999.90;999.90;;;16.40;99.90;;;;;;5072200;28;20050;-78
2022/06/01 11:36:23;;;;;;;1999.90;999.90;;;16.60;99.90;;;;;;5059468;28;20035;-79
2022/06/01 11:39:08;;;;;;;1999.90;999.90;;;16.70;99.90;;;;;;5038185;28;20041;-79
2022/06/01 11:41:37;;;;;;;1999.90;999.90;;;16.90;99.90;;;;;;5055588;28;20051;-79
2022/06/01 11:44:14;;;;;;;1999.90;999.90;;;17.20;99.90;;;;;;5063028;28;20040;-80
2022/06/01 11:46:58;;;;;;;1999.90;999.90;;;17.40;99.90;;;;;;5038977;28;20448;-80
2022/06/01 11:49:42;;;;;;;1999.90;999.90;;;17.40;99.90;;;;;;5067322;28;20043;-80
2022/06/01 11:52:26;;;;;;;1999.90;999.90;;;17.20;99.90;;;;;;5057868;28;20076;-79
2022/06/01 11:55:10;;;;;;;;;;;17.10;99.90;;;;;;5067988;28;20032;-80
2022/06/01 11:57:50;;;;;;;1999.90;999.90;;;17.00;99.90;;;;;;5068959;28;19919;-80
2022/06/01 12:00:57;;;;;;;1999.90;999.90;;;17.00;99.90;;;;;;5069027;28;20572;-79
2022/06/01 12:03:24;;;;;;;1999.90;999.90;;;17.40;99.90;;;;;;5071765;28;20521;-79
2022/06/01 12:06:07;;;;;;;1999.90;999.90;;;17.80;99.90;;;;;;5052752;28;20126;-80
2022/06/01 12:08:54;;;;;;;1999.90;999.90;;;18.10;99.90;;;;;;5054580;28;20055;-79
2022/06/01 12:11:38;;;;;;;1999.90;999.90;;;18.00;99.90;;;;;;5061763;28;20041;-80
2022/06/01 12:14:33;;;;;;;1999.90;999.90;;;17.60;99.90;;;;;;5060671;28;20040;-79
2022/06/01 12:17:17;;;;;;;1999.90;999.90;;;16.90;99.90;;;;;;5045731;28;20048;-80
2022/06/01 12:20:14;;;;;;;1999.90;999.90;;;16.20;99.90;;;;;;5047911;28;20097;-79
2022/06/01 12:28:52;;;;;;;1999.90;999.90;;;14.60;99.90;;;;;;5070244;28;20127;-77
2022/06/01 12:31:26;;;;;;;1999.90;999.90;;;14.00;99.90;;;;;;5023259;28;20493;-78
2022/06/01 12:34:20;;;;;;;1999.90;999.90;;;13.70;99.90;;;;;;5035020;28;20032;-78
2022/06/01 12:36:57;;;;;;;1999.90;999.90;;;13.40;99.90;;;;;;5042436;28;20059;-79
2022/06/01 12:39:27;;;;;;;1999.90;999.90;;;13.20;99.90;;;;;;5106229;28;20253;-78
2022/06/01 12:42:01;;;;;;;1999.90;999.90;;;12.90;99.90;;;;;;5045253;28;20054;-77
2022/06/01 12:44:27;;;;;;;1999.90;999.90;;;12.80;99.90;;;;;;5039404;28;20119;-77
2022/06/01 12:46:53;;;;;;;1999.90;999.90;;;12.70;99.90;;;;;;5050232;28;20040;-78
2022/06/01 12:49:40;;;;;;;1999.90;999.90;;;12.60;99.90;;;;;;5059880;28;20043;-78
2022/06/01 12:52:06;;;;;;;1999.90;999.90;;;12.50;99.90;;;;;;5066774;28;20422;-77
2022/06/01 12:54:40;;;;;;;1999.90;999.90;;;12.40;99.90;;;;;;5057577;28;20818;-77
2022/06/01 12:57:21;;;;;;;1999.90;999.90;;;12.40;99.90;;;;;;5067120;28;20698;-78